フィレンツェ の空港の天気 - METARとTAF

フィレンツェ・ペレトラ空港 ( LIRQ / FLR ) - イタリア フィレンツェ
飛行場実況気象(Metar)
観測時間06/21 06:20 CEST (06/21 04:20 UTC)
風向・風速東 2m/s
視程10km以上
天気現象
なし
気温19℃
湿度78%
気圧1017hPa
METARLIRQ 210420Z 08003KT 050V120 CAVOK 19/15 Q1017
過去の天気等 Google飛行場航空写真 Wunderground天気予報

過去48時間のMETAR

飛行場予報(TAF)
発表時間: 6/21 01:00 CEST (6/20 23:00 UTC)
予報対象時間: 21日2時 CEST ~ 22日2時 CEST
風向・風速不定 3m/s
視程10km以上
全天の4割程度の雲 雲底高度 1220m
21日10時 CEST ~ 21日12時 CEST に徐々に
風向・風速西南西 5m/s
21日19時 CEST ~ 21日21時 CEST に徐々に
風向・風速不定 3m/s
TAF LIRQ 202300Z 2100/2124 VRB06KT 9999 SCT040
BECMG 2108/2110 24010KT
BECMG 2117/2119 VRB05KT